Time;durP1;ratioP1;P1;durP2;ratioP2;P2;SDS_P1;SDS_P2;PMS_P1;PMS_P2;Temp;Humidity;BMP_temperature;BMP_pressure;BME280_temperature;BME280_humidity;BME280_pressure;Samples;Min_cycle;Max_cycle;Signal;HPM_P1;HPM_P2
2022/10/30 00:00:58;;;;;;;28.40;16.42;;;17.00;79.20;;;;;;2348284;57;21053;-60
2022/10/30 00:03:26;;;;;;;24.48;14.73;;;17.00;79.40;;;;;;2348263;57;21043;-63
2022/10/30 00:05:53;;;;;;;27.98;16.35;;;17.00;79.50;;;;;;2347909;56;21061;-64
2022/10/30 00:08:21;;;;;;;25.70;16.77;;;16.90;79.50;;;;;;2348517;57;21113;-62
2022/10/30 00:10:49;;;;;;;27.17;16.67;;;16.90;79.50;;;;;;2595760;53;21045;-62
2022/10/30 00:13:18;;;;;;;26.62;15.55;;;16.90;79.50;;;;;;2595954;53;21077;-62
2022/10/30 00:15:51;;;;;;;25.83;15.27;;;16.90;79.50;;;;;;2348296;57;21050;-62
2022/10/30 00:18:19;;;;;;;28.87;16.90;;;16.90;79.40;;;;;;2348803;57;21527;-61
2022/10/30 00:20:47;;;;;;;24.12;14.32;;;16.90;80.00;;;;;;2348295;57;21592;-61
2022/10/30 00:23:14;;;;;;;28.60;15.18;;;16.90;79.20;;;;;;2348074;57;21054;-62
2022/10/30 00:25:42;;;;;;;24.50;14.43;;;16.90;79.30;;;;;;2348027;57;21128;-61
2022/10/30 00:28:09;;;;;;;23.98;13.45;;;16.90;79.30;;;;;;2348292;57;21635;-62
2022/10/30 00:30:37;;;;;;;28.55;15.38;;;16.90;79.20;;;;;;2348266;57;21053;-62
2022/10/30 00:33:04;;;;;;;21.67;13.15;;;16.90;79.10;;;;;;2348349;57;21042;-61
2022/10/30 00:35:32;;;;;;;23.52;13.57;;;16.80;79.10;;;;;;2348401;57;21548;-62
2022/10/30 00:38:01;;;;;;;23.25;15.25;;;16.90;79.10;;;;;;2348093;57;21134;-61
2022/10/30 00:40:28;;;;;;;22.55;13.62;;;16.80;79.00;;;;;;2348425;57;21156;-61
2022/10/30 00:42:56;;;;;;;27.92;15.02;;;16.90;79.00;;;;;;2348168;57;21053;-61
2022/10/30 00:45:25;;;;;;;26.50;15.95;;;16.90;79.00;;;;;;2595938;53;21517;-61
2022/10/30 00:47:55;;;;;;;24.05;13.43;;;16.80;78.80;;;;;;2348272;57;21117;-61
2022/10/30 00:50:25;;;;;;;21.37;13.60;;;16.80;78.80;;;;;;2348344;57;21026;-62
2022/10/30 00:53:00;;;;;;;19.52;11.75;;;16.80;78.90;;;;;;2348544;57;21041;-61
2022/10/30 00:55:30;;;;;;;26.48;14.60;;;16.80;79.00;;;;;;2347879;57;21085;-62
2022/10/30 00:58:00;;;;;;;27.30;13.90;;;16.80;79.00;;;;;;2348000;57;21140;-62
2022/10/30 01:00:29;;;;;;;23.30;13.80;;;16.70;79.00;;;;;;2348181;57;21125;-62
2022/10/30 01:02:57;;;;;;;21.37;13.27;;;16.80;79.10;;;;;;2348228;57;21751;-61
2022/10/30 01:05:29;;;;;;;24.70;13.60;;;16.70;79.10;;;;;;2595587;53;21138;-61
2022/10/30 01:07:56;;;;;;;25.25;15.60;;;16.70;79.20;;;;;;2347147;57;21116;-62
2022/10/30 01:10:24;;;;;;;26.35;14.48;;;16.70;79.10;;;;;;2347355;57;21128;-61
2022/10/30 01:12:54;;;;;;;25.12;13.18;;;16.70;79.30;;;;;;2594717;53;21041;-62
2022/10/30 01:15:28;;;;;;;19.67;12.48;;;16.70;79.40;;;;;;2346921;57;21038;-62
2022/10/30 01:18:22;;;;;;;26.70;12.80;;;16.70;79.50;;;;;;2347571;57;21113;-62
2022/10/30 01:20:57;;;;;;;;;;;16.70;79.60;;;;;;2350800;57;22039;-63
2022/10/30 01:23:36;;;;;;;25.08;12.77;;;16.80;79.30;;;;;;2347635;57;20294;-63
2022/10/30 01:26:11;;;;;;;20.52;12.27;;;16.70;78.80;;;;;;2347393;57;21524;-63
2022/10/30 01:28:54;;;;;;;22.45;13.23;;;16.70;79.10;;;;;;2347369;57;21109;-63
2022/10/30 01:31:29;;;;;;;;;;;16.60;79.20;;;;;;2350667;57;21034;-62
2022/10/30 01:34:09;;;;;;;22.20;12.68;;;16.80;79.10;;;;;;2594571;53;20106;-63
2022/10/30 01:36:42;;;;;;;20.83;12.05;;;16.70;78.70;;;;;;2347289;57;21638;-63
2022/10/30 01:39:13;;;;;;;22.30;13.13;;;16.70;79.00;;;;;;2347626;57;21085;-63
2022/10/30 01:41:40;;;;;;;18.77;12.30;;;16.70;79.20;;;;;;2594463;53;21031;-63
2022/10/30 01:44:11;;;;;;;23.00;12.93;;;16.70;79.30;;;;;;2347512;57;21033;-63
2022/10/30 01:46:50;;;;;;;22.35;12.95;;;16.60;79.50;;;;;;2347162;57;21061;-64
2022/10/30 01:49:41;;;;;;;18.65;12.02;;;16.60;79.50;;;;;;2347279;57;21591;-62
2022/10/30 01:52:15;;;;;;;19.67;12.60;;;16.60;79.70;;;;;;2347401;57;21492;-63
2022/10/30 01:54:51;;;;;;;18.35;11.05;;;16.70;79.70;;;;;;2346767;57;21564;-63
2022/10/30 01:57:34;;;;;;;20.02;11.75;;;16.60;79.70;;;;;;2347354;57;21497;-63
2022/10/30 02:00:08;;;;;;;22.48;13.23;;;16.70;80.00;;;;;;2347518;57;22143;-63
2022/10/30 02:02:36;;;;;;;19.87;11.88;;;16.70;79.80;;;;;;2594499;53;21030;-62
2022/10/30 02:05:07;;;;;;;20.60;12.00;;;16.60;79.90;;;;;;2347414;57;21026;-62
2022/10/30 02:07:35;;;;;;;19.33;12.80;;;16.60;80.00;;;;;;2347145;57;21616;-62
2022/10/30 02:10:04;;;;;;;21.98;11.20;;;16.60;80.00;;;;;;2594684;53;21089;-62
2022/10/30 02:12:32;;;;;;;19.17;11.63;;;16.60;80.00;;;;;;2347407;57;21564;-61
2022/10/30 02:15:01;;;;;;;21.62;12.37;;;16.60;80.00;;;;;;2347213;57;21548;-61
2022/10/30 02:17:28;;;;;;;18.58;11.32;;;16.60;79.90;;;;;;2347162;57;21058;-62
2022/10/30 02:19:56;;;;;;;20.60;11.57;;;16.60;80.60;;;;;;2347114;57;21583;-61
2022/10/30 02:22:23;;;;;;;18.40;10.93;;;16.60;79.60;;;;;;2347418;57;21204;-62
2022/10/30 02:24:50;;;;;;;20.67;11.27;;;16.60;79.50;;;;;;2347192;57;21560;-62
2022/10/30 02:27:18;;;;;;;16.50;10.80;;;16.60;79.50;;;;;;2347171;57;21544;-62
2022/10/30 02:29:45;;;;;;;22.33;11.15;;;16.60;79.30;;;;;;2594802;53;21037;-62
2022/10/30 02:32:12;;;;;;;19.75;10.95;;;16.60;79.30;;;;;;2347071;57;21097;-61
2022/10/30 02:34:41;;;;;;;23.80;11.50;;;16.60;79.20;;;;;;2347431;57;21038;-62
2022/10/30 02:37:09;;;;;;;19.40;11.45;;;16.60;79.10;;;;;;2347117;57;21604;-62
2022/10/30 02:39:36;;;;;;;19.02;11.25;;;16.60;79.00;;;;;;2346706;57;21117;-62
2022/10/30 02:42:04;;;;;;;17.70;10.13;;;16.60;78.80;;;;;;2347285;57;21109;-62
2022/10/30 02:44:31;;;;;;;19.23;11.68;;;16.60;78.80;;;;;;2347286;57;21595;-62
2022/10/30 02:46:59;;;;;;;20.25;11.12;;;16.60;78.90;;;;;;2347118;57;21147;-62
2022/10/30 02:49:26;;;;;;;17.90;10.80;;;16.50;78.70;;;;;;2347421;57;21041;-61
2022/10/30 02:51:53;;;;;;;15.55;10.68;;;16.50;78.50;;;;;;2347497;57;21113;-62
2022/10/30 02:54:20;;;;;;;25.98;11.75;;;16.50;78.60;;;;;;2347143;57;21551;-62
2022/10/30 02:56:48;;;;;;;21.17;10.57;;;16.50;78.50;;;;;;2346986;57;21057;-62
2022/10/30 02:59:15;;;;;;;17.52;10.23;;;16.50;78.40;;;;;;2594540;53;21101;-61
2022/10/30 03:01:43;;;;;;;16.50;11.30;;;16.40;78.40;;;;;;2347348;57;21043;-62
2022/10/30 03:04:10;;;;;;;17.77;9.35;;;16.50;78.30;;;;;;2347101;57;21584;-62
2022/10/30 03:06:38;;;;;;;16.52;10.75;;;16.40;78.30;;;;;;2347041;57;21360;-62
2022/10/30 03:09:05;;;;;;;14.13;9.52;;;16.40;78.30;;;;;;2347123;57;21109;-62
2022/10/30 03:11:34;;;;;;;19.60;11.30;;;16.30;78.20;;;;;;2594590;53;21564;-62
2022/10/30 03:14:01;;;;;;;19.58;11.20;;;16.40;78.30;;;;;;2347443;57;21544;-62
2022/10/30 03:16:29;;;;;;;17.83;10.75;;;16.30;78.20;;;;;;2347082;57;21065;-62
2022/10/30 03:18:57;;;;;;;22.35;10.77;;;16.30;78.20;;;;;;2594486;53;21046;-62
2022/10/30 03:21:27;;;;;;;13.82;8.85;;;16.30;78.20;;;;;;2347121;57;21611;-62
2022/10/30 03:23:55;;;;;;;16.48;11.12;;;16.30;78.30;;;;;;2347420;57;21116;-62
2022/10/30 03:26:22;;;;;;;19.98;11.73;;;16.30;78.30;;;;;;2347189;57;21132;-62
2022/10/30 03:28:50;;;;;;;23.83;12.30;;;16.30;78.30;;;;;;2347085;57;21516;-62
2022/10/30 03:31:19;;;;;;;15.70;11.10;;;16.20;78.10;;;;;;2594582;53;21698;-61
2022/10/30 03:33:46;;;;;;;16.12;10.68;;;16.20;78.10;;;;;;2347148;57;21587;-62
2022/10/30 03:36:14;;;;;;;23.60;11.05;;;16.20;78.20;;;;;;2347150;57;21049;-62
2022/10/30 03:38:42;;;;;;;21.00;10.73;;;16.20;78.20;;;;;;2594467;53;21105;-61
2022/10/30 03:41:10;;;;;;;18.42;11.02;;;16.10;78.20;;;;;;2347111;57;21608;-62
2022/10/30 03:43:37;;;;;;;20.52;10.60;;;16.10;78.10;;;;;;2347369;57;21045;-62
2022/10/30 03:46:05;;;;;;;18.70;9.93;;;16.10;78.20;;;;;;2347012;57;21603;-62
2022/10/30 03:48:32;;;;;;;18.65;10.38;;;16.10;78.20;;;;;;2347050;57;21050;-62
2022/10/30 03:50:59;;;;;;;18.95;10.45;;;16.10;78.10;;;;;;2347165;57;21096;-62
2022/10/30 03:53:28;;;;;;;17.10;10.73;;;16.10;78.00;;;;;;2347083;57;21577;-62
2022/10/30 03:55:59;;;;;;;22.35;10.93;;;16.10;78.00;;;;;;2347110;57;21618;-62
2022/10/30 03:58:26;;;;;;;20.65;11.57;;;16.00;77.90;;;;;;2347179;57;21108;-63
2022/10/30 04:00:54;;;;;;;20.35;10.10;;;16.00;78.60;;;;;;2347129;57;21112;-62
2022/10/30 04:03:21;;;;;;;15.73;10.15;;;16.00;77.80;;;;;;2347061;57;21588;-62
2022/10/30 04:05:51;;;;;;;16.65;9.57;;;16.00;77.80;;;;;;2347156;57;21576;-62
2022/10/30 04:08:19;;;;;;;17.05;10.02;;;16.00;77.80;;;;;;2347140;57;21496;-62
2022/10/30 04:10:47;;;;;;;16.12;9.77;;;16.00;77.90;;;;;;2347015;57;21069;-62
2022/10/30 04:13:16;;;;;;;13.40;9.38;;;15.90;77.90;;;;;;2347164;57;21756;-62
2022/10/30 04:15:43;;;;;;;17.98;10.23;;;15.90;77.90;;;;;;2347208;57;21536;-62
2022/10/30 04:18:12;;;;;;;20.95;10.20;;;15.90;78.10;;;;;;2347036;57;21047;-62
2022/10/30 04:20:39;;;;;;;17.83;10.27;;;15.90;78.20;;;;;;2347054;57;21053;-61
2022/10/30 04:23:10;;;;;;;15.90;9.05;;;15.90;78.20;;;;;;2347104;57;21050;-62
2022/10/30 04:25:37;;;;;;;13.02;8.18;;;15.90;78.30;;;;;;2347244;57;21025;-62
2022/10/30 04:28:05;;;;;;;18.00;9.23;;;15.90;78.40;;;;;;2347248;57;21053;-61
2022/10/30 04:30:35;;;;;;;17.50;9.55;;;15.80;78.30;;;;;;2594330;53;21014;-62
2022/10/30 04:33:04;;;;;;;17.83;10.60;;;15.80;78.20;;;;;;2347192;57;21090;-62
2022/10/30 04:35:35;;;;;;;19.52;9.23;;;15.80;78.10;;;;;;2347057;57;21555;-62
2022/10/30 04:38:05;;;;;;;17.23;9.35;;;15.80;78.10;;;;;;2347101;57;21584;-61
2022/10/30 04:40:36;;;;;;;18.70;9.82;;;15.80;78.10;;;;;;2347196;57;21513;-62
2022/10/30 04:43:03;;;;;;;12.20;9.07;;;15.80;78.00;;;;;;2347578;57;21540;-62
2022/10/30 04:45:31;;;;;;;12.35;8.43;;;15.80;78.10;;;;;;2347343;57;21536;-62
2022/10/30 04:48:01;;;;;;;15.23;9.02;;;15.70;78.30;;;;;;2347636;57;21959;-62
2022/10/30 04:50:29;;;;;;;20.75;10.43;;;15.70;78.40;;;;;;2594808;53;21113;-62
2022/10/30 04:53:01;;;;;;;17.60;9.98;;;15.70;78.20;;;;;;2347163;57;21580;-62
2022/10/30 04:55:29;;;;;;;20.17;9.95;;;15.70;78.20;;;;;;2347119;57;21036;-63
2022/10/30 04:57:57;;;;;;;23.95;10.40;;;15.70;78.10;;;;;;2594660;53;21085;-63
2022/10/30 05:00:25;;;;;;;20.73;10.57;;;15.70;78.10;;;;;;2347468;57;21524;-62
2022/10/30 05:02:53;;;;;;;17.70;10.38;;;15.70;78.10;;;;;;2347490;57;21617;-62
2022/10/30 05:05:20;;;;;;;16.65;9.25;;;15.60;78.10;;;;;;2347078;57;21093;-62
2022/10/30 05:07:48;;;;;;;13.30;8.52;;;15.60;78.10;;;;;;2347267;57;21125;-62
2022/10/30 05:10:17;;;;;;;18.60;9.18;;;15.60;78.10;;;;;;2594664;53;21384;-63
2022/10/30 05:12:45;;;;;;;15.57;9.48;;;15.60;78.00;;;;;;2347231;57;21595;-62
2022/10/30 05:15:14;;;;;;;21.35;10.00;;;15.60;77.90;;;;;;2347287;57;21141;-63
2022/10/30 05:17:41;;;;;;;20.62;10.82;;;15.60;78.10;;;;;;2347477;57;21603;-63
2022/10/30 05:20:10;;;;;;;15.38;9.27;;;15.60;77.90;;;;;;2347535;57;21113;-62
2022/10/30 05:22:38;;;;;;;17.98;9.63;;;15.60;78.00;;;;;;2347239;57;21587;-63
2022/10/30 05:25:07;;;;;;;19.77;9.85;;;15.50;77.90;;;;;;2347420;57;21584;-62
2022/10/30 05:27:34;;;;;;;16.08;10.50;;;15.50;78.10;;;;;;2347129;57;21033;-62
2022/10/30 05:30:02;;;;;;;16.80;9.40;;;15.50;78.10;;;;;;2594833;53;21105;-62
2022/10/30 05:32:29;;;;;;;13.75;9.07;;;15.50;78.30;;;;;;2347418;57;21045;-63
2022/10/30 05:34:56;;;;;;;15.48;8.32;;;15.50;78.30;;;;;;2347455;57;21046;-62
2022/10/30 05:37:23;;;;;;;16.35;8.98;;;15.50;78.50;;;;;;2347166;57;22159;-63
2022/10/30 05:39:51;;;;;;;17.17;8.57;;;15.50;78.60;;;;;;2347179;57;21532;-62
2022/10/30 05:42:18;;;;;;;23.48;10.15;;;15.50;78.60;;;;;;2347165;57;21057;-62
2022/10/30 05:44:45;;;;;;;16.73;8.95;;;15.50;78.80;;;;;;2347457;57;21053;-63
2022/10/30 05:47:12;;;;;;;16.85;8.65;;;15.50;78.70;;;;;;2347335;57;21054;-63
2022/10/30 05:49:40;;;;;;;16.55;8.73;;;15.50;78.80;;;;;;2347087;57;21053;-62
2022/10/30 05:52:07;;;;;;;19.15;9.38;;;15.40;79.10;;;;;;2347109;57;21285;-63
2022/10/30 05:54:34;;;;;;;18.60;8.77;;;15.40;79.10;;;;;;2347205;57;21109;-62
2022/10/30 05:57:01;;;;;;;13.55;8.77;;;15.50;80.00;;;;;;2346867;57;21053;-62
2022/10/30 05:59:28;;;;;;;19.17;10.57;;;15.40;78.50;;;;;;2347293;57;21551;-63
2022/10/30 06:01:57;;;;;;;15.10;9.02;;;15.40;79.10;;;;;;2346935;57;21057;-62
2022/10/30 06:04:24;;;;;;;12.30;8.40;;;15.40;79.00;;;;;;2347486;57;21576;-62
2022/10/30 06:06:51;;;;;;;15.07;8.63;;;15.40;79.00;;;;;;2594557;52;21116;-62
2022/10/30 06:09:19;;;;;;;12.73;8.85;;;15.50;79.00;;;;;;2347464;57;21030;-63
2022/10/30 06:11:46;;;;;;;16.83;8.85;;;15.40;78.90;;;;;;2346914;57;21337;-62
2022/10/30 06:14:13;;;;;;;15.80;8.48;;;15.40;78.80;;;;;;2347286;57;21053;-61
2022/10/30 06:16:41;;;;;;;17.00;9.27;;;15.40;78.60;;;;;;2594005;52;21026;-62
2022/10/30 06:19:08;;;;;;;20.27;9.45;;;15.40;78.60;;;;;;2347070;57;21073;-63
2022/10/30 06:21:35;;;;;;;14.80;9.32;;;15.40;78.70;;;;;;2347247;57;21043;-63
2022/10/30 06:24:03;;;;;;;14.43;9.40;;;15.50;78.70;;;;;;2346996;57;21647;-63
2022/10/30 06:26:31;;;;;;;16.87;9.88;;;15.40;78.60;;;;;;2346901;57;21340;-63
2022/10/30 06:28:58;;;;;;;16.98;9.80;;;15.40;78.80;;;;;;2347118;57;21117;-63
2022/10/30 06:31:25;;;;;;;18.20;8.95;;;15.40;79.00;;;;;;2347108;57;21058;-63
2022/10/30 06:33:52;;;;;;;16.05;8.63;;;15.40;79.10;;;;;;2347208;57;21615;-63
2022/10/30 06:36:20;;;;;;;17.40;10.73;;;15.30;79.20;;;;;;2594508;52;21066;-63
2022/10/30 06:38:47;;;;;;;13.02;8.50;;;15.40;79.20;;;;;;2347078;57;21382;-62
2022/10/30 06:41:15;;;;;;;11.80;7.30;;;15.40;79.50;;;;;;2347297;57;21531;-63
2022/10/30 06:43:42;;;;;;;12.90;9.00;;;15.40;79.40;;;;;;2347286;57;21049;-63
2022/10/30 06:46:09;;;;;;;13.43;8.55;;;15.40;79.50;;;;;;2346665;57;21113;-63
2022/10/30 06:48:36;;;;;;;18.05;8.18;;;15.40;79.30;;;;;;2347067;57;21133;-63
2022/10/30 06:51:05;;;;;;;12.88;8.00;;;15.40;79.40;;;;;;2347030;57;21121;-62
2022/10/30 06:53:33;;;;;;;16.10;8.60;;;15.40;79.30;;;;;;2346982;57;21109;-62
2022/10/30 06:56:02;;;;;;;13.98;8.50;;;15.40;79.30;;;;;;2594070;52;21381;-62
2022/10/30 06:58:29;;;;;;;18.10;8.73;;;15.40;79.20;;;;;;2346766;57;21628;-62
2022/10/30 07:01:00;;;;;;;15.95;9.80;;;15.40;79.20;;;;;;2347065;57;21540;-61
2022/10/30 07:03:27;;;;;;;15.90;8.80;;;15.40;79.20;;;;;;2594315;53;21101;-63
2022/10/30 07:05:54;;;;;;;14.85;8.75;;;15.40;79.30;;;;;;2346934;57;21519;-63
2022/10/30 07:08:22;;;;;;;15.73;9.10;;;15.40;79.30;;;;;;2346933;57;21136;-62
2022/10/30 07:10:49;;;;;;;20.33;9.50;;;15.40;79.20;;;;;;2594653;53;21451;-63
2022/10/30 07:13:17;;;;;;;22.20;9.40;;;15.40;79.30;;;;;;2347202;57;21496;-62
2022/10/30 07:15:44;;;;;;;18.52;9.25;;;15.40;79.50;;;;;;2347122;57;21050;-62
2022/10/30 07:18:11;;;;;;;17.58;8.68;;;15.40;79.60;;;;;;2346857;57;21136;-62
2022/10/30 07:20:38;;;;;;;13.40;8.65;;;15.50;79.90;;;;;;2347152;57;21117;-62
2022/10/30 07:23:06;;;;;;;13.30;7.97;;;15.50;80.10;;;;;;2594525;53;21363;-62
2022/10/30 07:25:33;;;;;;;14.05;8.50;;;15.50;80.20;;;;;;2347289;57;21508;-63
2022/10/30 07:30:36;;;;;;;21.75;8.95;;;15.50;80.40;;;;;;2356871;57;22030;-62
2022/10/30 07:33:06;;;;;;;16.52;8.82;;;15.50;80.20;;;;;;2348337;57;21033;-62
2022/10/30 07:35:35;;;;;;;18.10;9.38;;;15.50;80.10;;;;;;2348003;57;21560;-62
2022/10/30 07:38:04;;;;;;;17.17;9.98;;;15.50;80.10;;;;;;2627483;52;21121;-62
2022/10/30 07:40:31;;;;;;;16.17;9.30;;;15.50;80.20;;;;;;2376035;56;22140;-63
2022/10/30 07:43:00;;;;;;;15.75;9.20;;;15.50;80.20;;;;;;2375827;56;21086;-62
2022/10/30 07:45:28;;;;;;;14.02;8.32;;;15.60;80.30;;;;;;2375854;56;21695;-62
2022/10/30 07:47:56;;;;;;;15.60;9.00;;;15.60;80.30;;;;;;2375784;56;21190;-62
2022/10/30 07:50:24;;;;;;;18.27;10.68;;;15.60;80.40;;;;;;2629603;52;21039;-62
2022/10/30 07:52:51;;;;;;;15.98;8.35;;;15.60;80.30;;;;;;2375893;56;21131;-62
2022/10/30 07:55:18;;;;;;;14.35;8.82;;;15.60;80.30;;;;;;2375925;56;21126;-62
2022/10/30 07:57:46;;;;;;;19.60;10.18;;;15.70;80.20;;;;;;2375986;56;21612;-62
2022/10/30 08:00:16;;;;;;;15.23;9.18;;;15.70;80.20;;;;;;2375701;56;21127;-62
2022/10/30 08:02:43;;;;;;;13.45;8.38;;;15.70;80.30;;;;;;2376071;56;21581;-62
2022/10/30 08:05:10;;;;;;;17.17;9.00;;;15.70;80.30;;;;;;2375859;56;21632;-62
2022/10/30 08:07:38;;;;;;;17.00;9.93;;;15.70;80.60;;;;;;2375863;56;21090;-62
2022/10/30 08:10:08;;;;;;;20.02;9.60;;;15.80;80.80;;;;;;2629488;52;21031;-62
2022/10/30 08:12:37;;;;;;;25.35;9.48;;;15.80;80.90;;;;;;2376139;56;21586;-62
2022/10/30 08:15:06;;;;;;;24.65;10.23;;;15.80;81.00;;;;;;2376169;56;21684;-62
2022/10/30 08:17:39;;;;;;;13.93;8.98;;;15.80;81.00;;;;;;2375573;56;21035;-62
2022/10/30 08:20:11;;;;;;;16.67;8.38;;;15.90;81.30;;;;;;2375606;56;21071;-62
2022/10/30 08:22:45;;;;;;;23.27;10.57;;;15.90;81.40;;;;;;2376173;56;21553;-62
2022/10/30 08:25:12;;;;;;;15.52;8.90;;;15.90;81.70;;;;;;2375567;56;21561;-62
2022/10/30 08:27:47;;;;;;;18.65;9.73;;;16.00;82.10;;;;;;2375770;56;21119;-62
2022/10/30 08:30:15;;;;;;;23.33;8.60;;;16.00;82.10;;;;;;2375268;56;21554;-61
2022/10/30 08:32:42;;;;;;;18.05;9.18;;;16.10;82.20;;;;;;2374882;56;21146;-62
2022/10/30 08:35:10;;;;;;;18.02;9.30;;;16.10;82.60;;;;;;2375518;56;21541;-62
2022/10/30 08:37:37;;;;;;;22.92;9.32;;;16.10;82.40;;;;;;2375512;56;21541;-62
2022/10/30 08:40:09;;;;;;;17.77;9.07;;;16.20;82.40;;;;;;2375017;56;21103;-62
2022/10/30 08:42:37;;;;;;;19.60;9.85;;;16.20;82.50;;;;;;2374105;56;21066;-62
2022/10/30 08:45:07;;;;;;;21.42;10.10;;;16.30;82.30;;;;;;2374586;56;21142;-62
2022/10/30 08:47:34;;;;;;;23.25;10.30;;;16.30;82.10;;;;;;2374576;56;21613;-62
2022/10/30 08:50:01;;;;;;;20.90;9.50;;;16.40;82.10;;;;;;2374343;56;21146;-62
2022/10/30 08:52:29;;;;;;;16.95;9.25;;;16.40;82.20;;;;;;2373555;56;21095;-62
2022/10/30 08:54:56;;;;;;;20.75;9.75;;;16.50;82.00;;;;;;2373653;56;21590;-63
2022/10/30 08:57:24;;;;;;;19.62;9.15;;;16.60;82.20;;;;;;2627501;52;21074;-62
2022/10/30 08:59:52;;;;;;;17.65;9.52;;;16.60;81.90;;;;;;2374046;56;21514;-62
2022/10/30 09:02:19;;;;;;;22.02;9.50;;;16.60;81.80;;;;;;2373485;56;21043;-61
2022/10/30 09:04:47;;;;;;;31.48;12.02;;;16.70;81.70;;;;;;2374276;56;21066;-62
2022/10/30 09:07:14;;;;;;;21.08;9.23;;;16.70;81.50;;;;;;2374043;56;21695;-62
2022/10/30 09:09:41;;;;;;;18.95;9.43;;;16.70;81.40;;;;;;2627683;52;21038;-62
2022/10/30 09:12:09;;;;;;;18.58;10.25;;;16.80;81.30;;;;;;2374004;56;21066;-62
2022/10/30 09:14:36;;;;;;;19.37;9.55;;;16.80;81.20;;;;;;2374334;56;21136;-63
2022/10/30 09:17:04;;;;;;;22.05;10.10;;;16.80;81.30;;;;;;2374466;56;21126;-62
2022/10/30 09:19:31;;;;;;;16.08;10.70;;;16.80;81.30;;;;;;2374428;56;21495;-62
2022/10/30 09:21:58;;;;;;;17.30;9.68;;;16.80;80.90;;;;;;2374309;56;21043;-63
2022/10/30 09:24:25;;;;;;;21.45;10.45;;;16.90;80.70;;;;;;2374219;56;21075;-62
2022/10/30 09:26:54;;;;;;;22.98;10.63;;;16.90;80.90;;;;;;2374160;56;21050;-63
2022/10/30 09:29:21;;;;;;;20.85;11.40;;;16.90;80.80;;;;;;2374295;56;21510;-63
2022/10/30 09:31:48;;;;;;;20.02;10.82;;;16.90;80.60;;;;;;2374246;56;21107;-63
2022/10/30 09:34:16;;;;;;;24.05;10.00;;;17.00;80.60;;;;;;2374500;56;22132;-62
2022/10/30 09:36:45;;;;;;;18.67;10.10;;;17.00;80.50;;;;;;2627699;52;21074;-61
2022/10/30 09:39:12;;;;;;;21.05;11.65;;;17.00;80.60;;;;;;2373875;56;21564;-62
2022/10/30 09:42:10;;;;;;;24.17;9.95;;;17.10;80.50;;;;;;2374461;56;21521;-63
2022/10/30 09:44:50;;;;;;;23.80;11.35;;;17.10;80.50;;;;;;2374530;56;21608;-62
2022/10/30 09:47:27;;;;;;;20.30;10.63;;;17.10;80.50;;;;;;2374230;56;21059;-62
2022/10/30 09:50:06;;;;;;;18.20;10.30;;;17.20;80.80;;;;;;2374542;56;21079;-63
2022/10/30 09:52:39;;;;;;;23.15;11.27;;;17.20;80.60;;;;;;2374402;56;21121;-63
2022/10/30 09:55:19;;;;;;;25.52;12.93;;;17.30;80.20;;;;;;2374268;56;21498;-62
2022/10/30 09:57:54;;;;;;;17.90;10.02;;;17.30;80.00;;;;;;2627692;52;21094;-62
2022/10/30 10:00:26;;;;;;;19.30;10.77;;;17.40;80.00;;;;;;2627731;52;21181;-62
2022/10/30 10:03:08;;;;;;;25.80;11.77;;;17.40;80.10;;;;;;2374537;56;21038;-63
2022/10/30 10:05:43;;;;;;;17.70;10.57;;;17.50;80.10;;;;;;2374229;56;21050;-62
2022/10/30 10:08:18;;;;;;;28.00;10.48;;;17.50;80.10;;;;;;2374369;56;21094;-62
2022/10/30 10:10:51;;;;;;;26.65;10.90;;;17.60;80.30;;;;;;2627727;52;21086;-62
2022/10/30 10:13:28;;;;;;;21.48;9.73;;;17.60;80.20;;;;;;2374821;56;21031;-62
2022/10/30 10:15:58;;;;;;;22.33;11.45;;;17.70;80.30;;;;;;2373859;56;21220;-62
2022/10/30 10:18:32;;;;;;;22.30;10.50;;;17.70;80.10;;;;;;2627985;52;21019;-62
2022/10/30 10:21:06;;;;;;;19.87;10.82;;;17.80;80.00;;;;;;2374498;56;21038;-63
2022/10/30 10:23:43;;;;;;;25.52;11.40;;;17.80;79.70;;;;;;2374466;56;21118;-62
2022/10/30 10:26:28;;;;;;;20.75;10.30;;;17.90;79.60;;;;;;2374055;56;21610;-63
2022/10/30 10:29:16;;;;;;;23.25;12.07;;;17.90;79.50;;;;;;2374749;56;21123;-62
2022/10/30 10:31:58;;;;;;;21.12;11.12;;;18.00;79.40;;;;;;2627273;52;21106;-62
2022/10/30 10:34:51;;;;;;;19.23;10.93;;;18.00;79.20;;;;;;2627762;52;21027;-62
2022/10/30 10:37:30;;;;;;;19.20;10.07;;;18.10;79.20;;;;;;2374638;56;21530;-62
2022/10/30 10:40:15;;;;;;;20.80;10.32;;;18.10;79.00;;;;;;2627973;52;21337;-62
2022/10/30 10:42:55;;;;;;;16.87;10.27;;;18.20;79.10;;;;;;2374492;56;21532;-62
2022/10/30 10:45:29;;;;;;;18.67;9.63;;;18.20;78.80;;;;;;2374352;56;21106;-62
2022/10/30 10:48:16;;;;;;;;;;;18.30;78.80;;;;;;2377635;56;21110;-63
2022/10/30 10:50:48;;;;;;;22.45;9.68;;;18.30;78.60;;;;;;2374063;56;20308;-62
2022/10/30 10:53:21;;;;;;;22.27;11.15;;;18.40;78.50;;;;;;2374308;56;21509;-63
2022/10/30 10:55:53;;;;;;;20.08;9.57;;;18.40;78.70;;;;;;2371642;56;21110;-62
2022/10/30 10:58:29;;;;;;;29.37;11.90;;;18.50;78.80;;;;;;2369711;56;21047;-63
2022/10/30 11:00:57;;;;;;;18.70;9.63;;;18.50;78.50;;;;;;2625739;52;21080;-62
2022/10/30 11:03:32;;;;;;;27.50;10.45;;;18.60;78.40;;;;;;2371574;56;21043;-63
2022/10/30 11:06:10;;;;;;;27.37;9.50;;;18.60;79.00;;;;;;2371331;56;22140;-63
2022/10/30 11:08:39;;;;;;;19.70;9.18;;;18.70;78.00;;;;;;2625447;52;21118;-63
2022/10/30 11:11:07;;;;;;;21.10;10.30;;;18.70;77.40;;;;;;2371667;56;21691;-63
2022/10/30 11:16:20;;;;;;;24.40;11.63;;;18.80;77.40;;;;;;2339927;56;29022;-62
2022/10/30 11:18:51;;;;;;;23.15;9.98;;;18.90;78.70;;;;;;2375318;56;21513;-62
2022/10/30 11:21:22;;;;;;;16.80;8.45;;;19.00;77.90;;;;;;2373951;56;21577;-62
2022/10/30 11:23:50;;;;;;;18.62;9.70;;;19.10;77.40;;;;;;2375010;56;21050;-62
2022/10/30 11:26:32;;;;;;;19.75;9.32;;;19.10;77.30;;;;;;2375205;56;21113;-62
2022/10/30 11:29:04;;;;;;;15.15;7.55;;;19.20;77.10;;;;;;2375060;56;21568;-65
2022/10/30 11:31:36;;;;;;;18.35;8.70;;;19.20;76.70;;;;;;2373889;56;21122;-65
2022/10/30 11:36:36;;;;;;;16.77;8.63;;;19.30;76.30;;;;;;2391505;56;21560;-60
2022/10/30 11:39:10;;;;;;;16.95;8.82;;;19.40;76.10;;;;;;2390601;56;21137;-60
2022/10/30 11:41:39;;;;;;;23.77;10.45;;;19.40;76.00;;;;;;2391635;56;21053;-60
2022/10/30 11:44:07;;;;;;;18.12;8.40;;;19.50;75.50;;;;;;2391730;56;21097;-60
2022/10/30 11:46:36;;;;;;;21.05;7.90;;;19.60;75.40;;;;;;2649100;51;21351;-61
2022/10/30 11:49:04;;;;;;;17.27;8.13;;;19.60;75.30;;;;;;2391854;56;21129;-60
2022/10/30 11:51:37;;;;;;;22.75;9.18;;;19.70;74.50;;;;;;2391399;56;21025;-61
2022/10/30 11:54:06;;;;;;;18.77;8.50;;;19.70;74.80;;;;;;2392034;56;21536;-60
2022/10/30 11:56:35;;;;;;;18.77;8.50;;;19.80;75.00;;;;;;2391616;56;21670;-60
2022/10/30 11:59:04;;;;;;;23.60;8.45;;;19.90;74.70;;;;;;2391055;56;21030;-60
2022/10/30 12:01:34;;;;;;;17.85;8.60;;;19.90;74.50;;;;;;2391303;56;21034;-60
2022/10/30 12:04:15;;;;;;;20.80;8.90;;;20.00;75.20;;;;;;2391608;56;21034;-60
2022/10/30 12:06:43;;;;;;;24.10;9.38;;;20.10;73.90;;;;;;2648251;51;21097;-58
2022/10/30 12:09:14;;;;;;;14.75;7.40;;;20.20;73.90;;;;;;2391599;56;21074;-60
2022/10/30 12:11:43;;;;;;;21.20;9.10;;;20.30;73.20;;;;;;2391454;56;21493;-60
2022/10/30 12:14:18;;;;;;;17.27;7.60;;;20.30;72.80;;;;;;2391522;56;21018;-61
2022/10/30 12:16:47;;;;;;;16.25;6.45;;;20.40;72.50;;;;;;2391417;56;21037;-60
2022/10/30 12:19:15;;;;;;;13.40;7.07;;;20.50;72.20;;;;;;2391555;56;21564;-60
2022/10/30 12:21:47;;;;;;;16.45;6.97;;;20.50;72.10;;;;;;2391166;56;21513;-61
2022/10/30 12:24:19;;;;;;;18.92;7.37;;;20.60;72.30;;;;;;2391580;56;21066;-60
2022/10/30 12:26:49;;;;;;;22.58;8.63;;;20.70;71.70;;;;;;2646908;51;21505;-60
2022/10/30 12:29:20;;;;;;;22.30;9.07;;;20.70;70.90;;;;;;2390775;56;21184;-60
2022/10/30 12:31:54;;;;;;;15.48;7.12;;;20.80;70.90;;;;;;2390661;56;22130;-60
2022/10/30 12:34:41;;;;;;;;;;;20.80;70.50;;;;;;2394190;56;21492;-60
2022/10/30 12:37:15;;;;;;;13.18;6.82;;;20.90;70.20;;;;;;2390456;56;20104;-60
2022/10/30 12:39:50;;;;;;;15.48;7.03;;;20.90;70.10;;;;;;2390233;56;21072;-60
2022/10/30 12:42:21;;;;;;;14.75;6.55;;;21.00;69.90;;;;;;2390299;56;21525;-60
2022/10/30 12:44:54;;;;;;;21.60;7.65;;;21.10;69.90;;;;;;2390139;56;21073;-60
2022/10/30 12:47:28;;;;;;;11.45;6.07;;;21.10;69.50;;;;;;2389932;56;21635;-61
2022/10/30 12:50:00;;;;;;;19.17;6.50;;;21.20;69.10;;;;;;2390330;56;21021;-60
2022/10/30 12:52:35;;;;;;;19.15;7.30;;;21.20;69.00;;;;;;2390761;56;21501;-60
2022/10/30 12:57:45;;;;;;;16.85;7.03;;;21.20;69.30;;;;;;2377527;56;22089;-60